aviador You're here:

UTAK Decoded Metar

KRASNOVODSK in RUSSIA
Report Time2017-08-23 04:00:00
UTC Time2017-08-23 04:20:26
Flight Rules vfr VFR
Wind100° at 21 kt
W.Decomp.*RWY 16: 8.9 kt HW 19 kt LCW
W.Rank100° ranks 2
Current wind is above 100° avg. (9.0)
Visibility9999 m
Phenomena:N/A
Clouds:N/A
Expected CloudBase > 12,800 ft AGL from Temp-Dew spread
CeilingNone
Temp29°C (ISA +15)
Dew Point-3°C (12% RH)
Heat Index27.4°C
AAT19.0°C
QNH1010 hPa
Density Alt2,123 ft
Elevation279 ft
Report Wrong Elevation
Raw Report
UTAK 230400Z 10021KT CAVOK 29/M03 Q1010 NOSIG=

Extra information for UTAK:More info

Metar Taf Metar & Taf Last 4 Metars F.Rules Stats Wind Profile Meteogram Temp Stats Airport Information Weather charts Add Link Nearby VenuesMetar ALERT Operation Metar Decoded Social comments